createdAt,value
2022-10-08T00:02:19.547Z,31.30
2022-10-08T00:06:28.201Z,27.38
2022-10-08T00:10:30.448Z,31.20
2022-10-08T00:14:32.132Z,28.33
2022-10-08T00:18:34.097Z,29.13
2022-10-08T00:22:35.656Z,27.63
2022-10-08T00:26:43.642Z,32.72
2022-10-08T00:30:46.174Z,34.40
2022-10-08T00:34:48.096Z,31.75
2022-10-08T00:38:54.308Z,28.23
2022-10-08T00:42:56.368Z,30.45
2022-10-08T00:47:32.773Z,29.08
2022-10-08T00:51:34.748Z,30.48
2022-10-08T00:55:43.619Z,30.50
2022-10-08T00:59:47.017Z,29.20
2022-10-08T01:03:48.743Z,33.28
2022-10-08T01:08:15.303Z,32.58
2022-10-08T01:12:55.653Z,30.20
2022-10-08T01:17:07.940Z,34.60
2022-10-08T01:21:22.802Z,27.05
2022-10-08T01:25:45.691Z,28.15
2022-10-08T01:29:50.269Z,28.35
2022-10-08T01:34:01.928Z,29.25
2022-10-08T01:38:07.070Z,26.83
2022-10-08T01:42:10.992Z,28.92
2022-10-08T01:46:25.357Z,28.85
2022-10-08T01:50:33.013Z,30.00
2022-10-08T01:54:37.306Z,35.22
2022-10-08T01:58:54.349Z,34.10
2022-10-08T02:02:56.828Z,29.38
2022-10-08T02:07:08.937Z,30.27
2022-10-08T02:11:10.705Z,35.30
2022-10-08T02:15:23.546Z,37.33
2022-10-08T02:19:41.925Z,29.17
2022-10-08T02:23:54.024Z,36.00
2022-10-08T02:28:15.958Z,34.22
2022-10-08T02:32:35.905Z,35.10
2022-10-08T02:36:41.895Z,33.00
2022-10-08T02:40:48.605Z,36.47
2022-10-08T02:45:04.154Z,33.75
2022-10-08T02:49:12.116Z,31.25
2022-10-08T02:53:18.300Z,34.23
2022-10-08T02:57:32.055Z,30.30
2022-10-08T03:01:55.719Z,30.48
2022-10-08T03:06:02.154Z,31.55
2022-10-08T03:10:06.330Z,29.95
2022-10-08T03:14:12.419Z,28.20
2022-10-08T03:18:14.783Z,32.53
2022-10-08T03:22:41.344Z,32.00
2022-10-08T03:26:44.102Z,40.08
2022-10-08T03:30:47.508Z,40.78
2022-10-08T03:34:49.579Z,30.83
2022-10-08T03:38:52.350Z,36.78
2022-10-08T03:42:54.232Z,38.15
2022-10-08T03:46:55.828Z,35.45
2022-10-08T03:51:04.438Z,32.33
2022-10-08T03:55:06.979Z,37.05
2022-10-08T03:59:08.832Z,39.72
2022-10-08T04:03:10.890Z,35.13
2022-10-08T04:07:12.749Z,38.53
2022-10-08T04:11:16.414Z,37.55
2022-10-08T04:15:18.546Z,36.42
2022-10-08T04:19:20.407Z,37.15
2022-10-08T04:23:22.287Z,36.42
2022-10-08T04:27:24.012Z,35.10
2022-10-08T04:31:26.043Z,39.65
2022-10-08T04:35:27.775Z,38.67
2022-10-08T04:39:29.724Z,42.80
2022-10-08T04:43:31.974Z,39.65
2022-10-08T04:47:34.014Z,38.75
2022-10-08T04:51:35.731Z,37.90
2022-10-08T04:55:37.764Z,41.47
2022-10-08T04:59:53.763Z,38.88
2022-10-08T05:04:01.282Z,41.85
2022-10-08T05:08:03.172Z,39.00
2022-10-08T05:12:05.373Z,34.03
2022-10-08T05:16:12.605Z,37.30
2022-10-08T05:20:14.673Z,42.05
2022-10-08T05:24:16.350Z,35.45
2022-10-08T05:28:18.222Z,31.30
2022-10-08T05:32:20.180Z,35.38
2022-10-08T05:36:34.713Z,36.58
2022-10-08T05:40:36.277Z,36.20
2022-10-08T05:44:38.744Z,35.47
2022-10-08T05:48:42.055Z,36.90
2022-10-08T05:52:44.131Z,33.72
2022-10-08T05:56:46.537Z,34.83
2022-10-08T06:00:57.499Z,35.42
2022-10-08T06:04:59.273Z,38.65
2022-10-08T06:09:02.004Z,35.90
2022-10-08T06:13:03.728Z,35.90
2022-10-08T06:17:05.567Z,34.17
2022-10-08T06:21:13.906Z,31.70
2022-10-08T06:25:15.918Z,34.97
2022-10-08T06:29:18.813Z,28.38
2022-10-08T06:33:21.353Z,29.40
2022-10-08T06:37:23.057Z,29.35
2022-10-08T06:41:26.062Z,27.58
2022-10-08T06:45:27.921Z,30.35
2022-10-08T06:49:30.112Z,31.02
2022-10-08T06:53:32.370Z,35.05
2022-10-08T06:57:34.333Z,31.83
2022-10-08T07:01:36.523Z,27.35
2022-10-08T07:05:38.729Z,25.73
2022-10-08T07:09:40.551Z,27.80
2022-10-08T07:13:43.510Z,26.80
2022-10-08T07:17:45.170Z,27.02
2022-10-08T07:21:47.319Z,26.40
2022-10-08T07:26:06.447Z,30.65
2022-10-08T07:30:08.567Z,24.23
2022-10-08T07:34:13.113Z,27.02
2022-10-08T07:38:18.836Z,25.98
2022-10-08T07:42:20.518Z,26.67
2022-10-08T07:46:22.751Z,27.27
2022-10-08T07:50:24.463Z,29.25
2022-10-08T07:54:26.406Z,20.67
2022-10-08T07:58:28.089Z,21.15
2022-10-08T08:02:30.001Z,27.45
2022-10-08T08:06:33.346Z,24.15
2022-10-08T08:10:35.477Z,25.42
2022-10-08T08:14:37.142Z,24.33
2022-10-08T08:18:41.283Z,23.75
2022-10-08T08:22:42.943Z,23.10
2022-10-08T08:26:45.094Z,22.77
2022-10-08T08:30:46.702Z,19.10
2022-10-08T08:34:48.798Z,19.05
2022-10-08T08:38:50.438Z,19.92
2022-10-08T08:42:56.818Z,18.30
2022-10-08T08:47:04.251Z,19.75
2022-10-08T08:51:06.171Z,18.88
2022-10-08T08:55:17.334Z,22.25
2022-10-08T08:59:27.299Z,17.13
2022-10-08T09:03:34.902Z,16.38
2022-10-08T09:07:45.767Z,17.27
2022-10-08T09:11:47.971Z,21.45
2022-10-08T09:15:50.360Z,16.00
2022-10-08T09:19:52.560Z,16.77
2022-10-08T09:23:54.439Z,17.27
2022-10-08T09:28:00.178Z,19.92
2022-10-08T09:32:02.306Z,20.50
2022-10-08T09:36:04.181Z,15.77
2022-10-08T09:40:17.561Z,26.70
2022-10-08T09:44:21.706Z,16.88
2022-10-08T09:48:28.624Z,15.57
2022-10-08T09:52:32.785Z,16.05
2022-10-08T09:56:35.055Z,12.63
2022-10-08T10:00:39.475Z,17.63
2022-10-08T10:04:41.496Z,15.50
2022-10-08T10:09:16.872Z,19.00
2022-10-08T10:13:34.335Z,16.70
2022-10-08T10:17:52.159Z,16.70
2022-10-08T10:22:07.867Z,14.77
2022-10-08T10:26:29.260Z,12.88
2022-10-08T10:30:41.838Z,16.40
2022-10-08T10:34:47.626Z,16.73
2022-10-08T10:39:03.021Z,17.63
2022-10-08T10:43:20.791Z,15.90
2022-10-08T10:47:29.588Z,23.02
2022-10-08T10:51:48.840Z,15.40
2022-10-08T10:56:21.598Z,12.75
2022-10-08T11:00:27.983Z,18.13
2022-10-08T11:04:45.925Z,16.00
2022-10-08T11:09:01.829Z,10.90
2022-10-08T11:13:36.577Z,16.83
2022-10-08T11:17:41.334Z,17.60
2022-10-08T11:26:25.503Z,17.58
2022-10-08T11:30:48.233Z,15.15
2022-10-08T11:35:01.266Z,20.75
2022-10-08T11:39:16.046Z,21.92
2022-10-08T11:43:30.678Z,14.60
2022-10-08T11:47:46.266Z,15.15
2022-10-08T11:51:52.345Z,14.52
2022-10-08T11:55:57.004Z,19.48
2022-10-08T12:00:07.807Z,14.90
2022-10-08T12:04:22.263Z,19.80
2022-10-08T12:08:47.885Z,18.20
2022-10-08T12:12:49.846Z,21.23
2022-10-08T12:16:54.684Z,16.90
2022-10-08T12:21:20.420Z,18.55
2022-10-08T12:25:36.733Z,15.32
2022-10-08T12:29:58.646Z,18.33
2022-10-08T12:34:14.422Z,19.27
2022-10-08T12:38:37.371Z,16.80
2022-10-08T12:42:41.066Z,20.88
2022-10-08T12:46:58.417Z,25.05
2022-10-08T12:51:18.440Z,19.35
2022-10-08T12:55:23.232Z,23.45
2022-10-08T12:59:27.567Z,19.38
2022-10-08T13:03:29.326Z,21.35
2022-10-08T13:07:33.999Z,25.42
2022-10-08T13:11:35.911Z,22.67
2022-10-08T13:15:37.807Z,19.67
2022-10-08T13:19:40.826Z,22.63
2022-10-08T13:23:44.200Z,20.25
2022-10-08T13:28:05.860Z,16.70
2022-10-08T13:32:13.809Z,18.00
2022-10-08T13:36:22.116Z,17.23
2022-10-08T13:40:24.274Z,19.08
2022-10-08T13:44:27.516Z,19.13
2022-10-08T13:48:29.791Z,18.90
2022-10-08T13:52:33.855Z,20.77
2022-10-08T13:56:35.667Z,20.33
2022-10-08T14:00:40.020Z,23.95
2022-10-08T14:04:42.602Z,23.45
2022-10-08T14:08:44.423Z,20.75
2022-10-08T14:12:46.710Z,23.65
2022-10-08T14:16:48.461Z,18.88
2022-10-08T14:20:51.356Z,19.63
2022-10-08T14:24:53.726Z,16.42
2022-10-08T14:28:56.789Z,21.70
2022-10-08T14:32:58.689Z,23.85
2022-10-08T14:37:00.649Z,18.88
2022-10-08T14:41:02.327Z,18.45
2022-10-08T14:45:04.745Z,25.25
2022-10-08T14:49:06.631Z,22.08
2022-10-08T14:53:08.488Z,19.85
2022-10-08T14:57:10.548Z,23.95
2022-10-08T15:01:12.547Z,17.23
2022-10-08T15:05:14.487Z,20.85
2022-10-08T15:09:16.876Z,22.42
2022-10-08T15:13:18.832Z,17.90
2022-10-08T15:17:20.702Z,23.50
2022-10-08T15:21:22.522Z,24.77
2022-10-08T15:25:24.484Z,27.73
2022-10-08T15:29:26.133Z,23.90
2022-10-08T15:33:28.081Z,26.25
2022-10-08T15:37:29.861Z,28.85
2022-10-08T15:41:35.934Z,28.70
2022-10-08T15:45:44.085Z,26.35
2022-10-08T15:49:46.193Z,26.02
2022-10-08T15:53:47.983Z,24.92
2022-10-08T15:57:49.823Z,29.55
2022-10-08T16:01:51.632Z,23.60
2022-10-08T16:05:59.485Z,25.20
2022-10-08T16:10:01.221Z,27.30
2022-10-08T16:14:06.511Z,25.60
2022-10-08T16:18:08.171Z,26.65
2022-10-08T16:22:10.077Z,30.60
2022-10-08T16:26:13.436Z,27.95
2022-10-08T16:30:15.277Z,28.55
2022-10-08T16:34:21.164Z,34.05
2022-10-08T16:38:23.188Z,50.17
2022-10-08T16:42:25.716Z,100.68
2022-10-08T16:46:31.167Z,51.90
2022-10-08T16:50:40.149Z,79.82
2022-10-08T16:54:42.096Z,53.15
2022-10-08T16:58:44.011Z,52.45
2022-10-08T17:02:46.230Z,60.78
2022-10-08T17:06:48.399Z,110.75
2022-10-08T17:10:50.213Z,78.22
2022-10-08T17:14:51.971Z,58.95
2022-10-08T17:18:57.302Z,61.40
2022-10-08T17:22:58.933Z,72.90
2022-10-08T17:27:00.843Z,65.13
2022-10-08T17:31:04.332Z,69.10
2022-10-08T17:35:06.544Z,63.47
2022-10-08T17:39:11.732Z,61.88
2022-10-08T17:43:13.534Z,104.43
2022-10-08T17:47:15.253Z,93.70
2022-10-08T17:51:19.492Z,98.68
2022-10-08T17:55:21.060Z,139.40
2022-10-08T17:59:22.924Z,94.32
2022-10-08T18:03:24.913Z,108.43
2022-10-08T18:07:26.740Z,99.40
2022-10-08T18:11:30.322Z,96.32
2022-10-08T18:15:36.610Z,110.25
2022-10-08T18:19:38.382Z,87.65
2022-10-08T18:23:45.989Z,80.82
2022-10-08T18:27:48.039Z,111.22
2022-10-08T18:31:49.909Z,127.93
2022-10-08T18:35:51.694Z,81.70
2022-10-08T18:39:53.706Z,93.13
2022-10-08T18:43:56.516Z,105.07
2022-10-08T18:47:59.057Z,95.40
2022-10-08T18:52:01.586Z,60.55
2022-10-08T18:56:06.467Z,63.88
2022-10-08T19:00:09.195Z,76.95
2022-10-08T19:04:17.168Z,60.40
2022-10-08T19:08:19.104Z,54.63
2022-10-08T19:12:20.961Z,55.60
2022-10-08T19:16:22.853Z,42.28
2022-10-08T19:20:24.746Z,49.13
2022-10-08T19:24:27.411Z,93.45
2022-10-08T19:28:29.476Z,151.32
2022-10-08T19:32:31.164Z,125.93
2022-10-08T19:36:36.713Z,68.57
2022-10-08T19:40:38.583Z,229.35
2022-10-08T19:44:40.573Z,185.13
2022-10-08T19:48:42.342Z,129.82
2022-10-08T19:52:46.546Z,69.40
2022-10-08T19:56:51.498Z,78.32
2022-10-08T20:01:08.562Z,87.10
2022-10-08T20:05:10.540Z,46.97
2022-10-08T20:09:13.268Z,52.70
2022-10-08T20:13:15.020Z,51.10
2022-10-08T20:17:17.200Z,45.65
2022-10-08T20:21:19.726Z,46.17
2022-10-08T20:25:22.801Z,83.47
2022-10-08T20:29:30.038Z,102.25
2022-10-08T20:33:32.750Z,115.05
2022-10-08T20:37:34.797Z,59.95
2022-10-08T20:41:36.700Z,57.00
2022-10-08T20:45:38.345Z,67.10
2022-10-08T20:49:40.226Z,70.00
2022-10-08T20:53:53.725Z,50.78
2022-10-08T20:57:55.859Z,50.72
2022-10-08T21:01:57.562Z,50.00
2022-10-08T21:06:00.471Z,62.03
2022-10-08T21:10:02.152Z,89.85
2022-10-08T21:14:06.856Z,44.90
2022-10-08T21:18:08.863Z,57.83
2022-10-08T21:22:10.697Z,90.90
2022-10-08T21:26:16.763Z,60.00
2022-10-08T21:30:18.665Z,42.92
2022-10-08T21:34:20.423Z,41.92
2022-10-08T21:38:22.502Z,41.53
2022-10-08T21:42:24.202Z,33.38
2022-10-08T21:46:28.743Z,31.17
2022-10-08T21:50:35.262Z,26.40
2022-10-08T21:54:37.872Z,30.83
2022-10-08T21:58:45.334Z,36.75
2022-10-08T22:02:47.403Z,25.27
2022-10-08T22:06:55.252Z,29.42
2022-10-08T22:10:57.608Z,27.77
2022-10-08T22:14:59.269Z,29.20
2022-10-08T22:19:01.260Z,29.58
2022-10-08T22:23:02.969Z,28.55
2022-10-08T22:27:04.996Z,39.72
2022-10-08T22:31:08.706Z,29.08
2022-10-08T22:35:10.577Z,34.58
2022-10-08T22:39:12.764Z,27.23
2022-10-08T22:43:15.129Z,34.72
2022-10-08T22:47:16.846Z,25.23
2022-10-08T22:51:21.598Z,30.35
2022-10-08T22:55:23.328Z,24.38
2022-10-08T22:59:25.296Z,27.88
2022-10-08T23:03:27.439Z,22.25
2022-10-08T23:07:29.531Z,26.08
2022-10-08T23:11:32.015Z,23.38
2022-10-08T23:15:33.817Z,24.67
2022-10-08T23:19:35.553Z,21.38
2022-10-08T23:23:37.464Z,20.50
2022-10-08T23:27:39.213Z,20.13
2022-10-08T23:31:41.319Z,22.48
2022-10-08T23:35:43.272Z,17.98
2022-10-08T23:39:45.141Z,18.65
2022-10-08T23:43:48.850Z,21.00
2022-10-08T23:47:50.702Z,21.83
2022-10-08T23:51:52.450Z,15.82
2022-10-08T23:55:54.621Z,19.92
2022-10-08T23:59:56.797Z,18.50
